Bluefin — WDE9397 — position and weather

sailwx.info

Track history (hours):
 
Tides and Currents Weather Stations Pressure Air Temp Water Temp Dewpoint Dewpoint Depression Visibility Wind Speed Wind Dir Waves Ship Positions

Bluefin

More information available from US FCC via Universal Licensing System and Coast Guard Vessel Documentation Center.

Last reported at 2014-Jul-22 03:26 UTC. Time now 2014-Jul-22 11:21 UTC.
Position N 43°07' W 070°48'.

Length 166 m; draft 4.7 m.

Type: Towing. MMSI: 367416750.

Date/timePositionNaut miles runAvg speedWind from/ knotsBaromVisibWave heightAir tempDewpointWater temp
2014-Jul-22 03:26N 43°07' W 070°48'0 0.0
2014-Jul-22 02:27N 43°07' W 070°48'1 1.5
2014-Jul-22 01:33N 43°06' W 070°47'5 5.3
2014-Jul-22 00:33N 43°02' W 070°41'8 7.9
2014-Jul-21 23:34N 42°55' W 070°38'9 8.9
2014-Jul-21 22:33N 42°46' W 070°34'25 9.2
2014-Jul-21 19:51N 42°22' W 070°29'3 9.6
2014-Jul-21 19:32N 42°19' W 070°28'9 9.3
2014-Jul-21 18:33N 42°09' W 070°28'10 9.5
2014-Jul-21 17:33N 41°60' W 070°27'9 9.5
2014-Jul-21 16:33N 41°51' W 070°28'8 6.8
2014-Jul-21 15:26N 41°45' W 070°35'6 6.9
2014-Jul-21 14:33N 41°41' W 070°41'142 4.7
2014-Jul-20 08:27N 40°05' W 072°59'8 9.5
2014-Jul-20 07:33N 39°60' W 073°07'10 9.5
2014-Jul-20 06:33N 39°53' W 073°17'10 9.4
2014-Jul-20 05:29N 39°47' W 073°27'18 9.2
2014-Jul-20 03:29N 39°36' W 073°45'8 9.0
2014-Jul-20 02:33N 39°30' W 073°54'19 9.1
2014-Jul-20 00:28N 39°18' W 074°13'57 1.6
2014-Jul-18 13:17N 39°51' W 075°14'0 0.0
2014-Jul-18 12:33N 39°51' W 075°14'0 0.0
2014-Jul-18 07:24N 39°51' W 075°14'54 3.8
2014-Jul-17 17:24N 39°23' W 074°14'911.1
2014-Jul-17 16:33N 39°31' W 074°08'1111.0
2014-Jul-17 15:33N 39°41' W 074°01'1210.7
2014-Jul-17 14:23N 39°53' W 073°57'910.9
2014-Jul-17 13:33N 40°02' W 073°56'1110.7
2014-Jul-17 12:33N 40°12' W 073°55'1110.9
2014-Jul-17 11:33N 40°23' W 073°54'10 9.9
2014-Jul-17 10:33N 40°32' W 074°01'6 5.7
2014-Jul-17 09:32N 40°37' W 074°03'0 0.0
2014-Jul-17 08:26N 40°37' W 074°03'0 0.0
2014-Jul-17 07:29N 40°37' W 074°03'0 0.2
2014-Jul-17 06:29N 40°37' W 074°04'0 0.0
2014-Jul-17 05:32N 40°37' W 074°04'0 0.0
2014-Jul-17 04:29N 40°37' W 074°04'0 0.0
2014-Jul-17 03:32N 40°37' W 074°04'0 0.0
2014-Jul-17 02:32N 40°37' W 074°04'0 0.0
2014-Jul-17 01:33N 40°37' W 074°04'0 0.2
2014-Jul-17 00:33N 40°37' W 074°03'0 0.1
2014-Jul-16 23:34N 40°37' W 074°03'0 0.0
2014-Jul-16 22:33N 40°37' W 074°03'0 0.0
2014-Jul-16 21:32N 40°37' W 074°03'0 0.0
2014-Jul-16 20:33N 40°37' W 074°03'0 0.0
2014-Jul-16 19:33N 40°37' W 074°03'0 0.1
2014-Jul-16 18:33N 40°37' W 074°03'0 0.2
2014-Jul-16 17:33N 40°37' W 074°03'0 0.4
2014-Jul-16 16:33N 40°38' W 074°04'2 1.8
2014-Jul-16 15:33N 40°39' W 074°05'11 0.9
2014-Jul-16 03:33N 40°30' W 074°13'5 4.5
2014-Jul-16 02:33N 40°29' W 074°07'0 0.0
2014-Jul-15 23:05N 40°29' W 074°07'0 0.0
2014-Jul-15 17:26N 40°29' W 074°07'0 0.0
2014-Jul-15 16:32N 40°29' W 074°07'0 0.1
2014-Jul-15 14:26N 40°29' W 074°07'0 0.0
2014-Jul-15 13:26N 40°29' W 074°07'0 0.0
2014-Jul-15 12:05N 40°29' W 074°07'0 0.0
2014-Jul-15 10:32N 40°29' W 074°07'0 0.2
2014-Jul-15 09:32N 40°29' W 074°07'0 0.0
2014-Jul-15 08:26N 40°29' W 074°07'0 0.0
2014-Jul-15 07:23N 40°29' W 074°07'0 0.0
2014-Jul-15 06:32N 40°29' W 074°07'0 0.0
2014-Jul-15 02:32N 40°29' W 074°07'0 0.0
2014-Jul-14 19:14N 40°29' W 074°07'0 0.0
2014-Jul-14 17:05N 40°29' W 074°07'0 0.0
2014-Jul-14 16:32N 40°29' W 074°07'0 0.0
2014-Jul-14 15:26N 40°29' W 074°07'0 0.1
2014-Jul-14 14:20N 40°29' W 074°07'0 0.0
2014-Jul-14 13:17N 40°29' W 074°07'0 0.0
2014-Jul-14 09:32N 40°29' W 074°07'0 0.0
2014-Jul-14 08:23N 40°29' W 074°07'0 0.0
2014-Jul-14 03:32N 40°29' W 074°07'0 0.1
2014-Jul-14 02:20N 40°29' W 074°07'0 0.0
2014-Jul-14 01:32N 40°29' W 074°07'0 0.0
2014-Jul-14 00:26N 40°29' W 074°07'0 0.0
2014-Jul-13 23:29N 40°29' W 074°07'0 0.0
2014-Jul-13 22:33N 40°29' W 074°07'0 0.0
2014-Jul-13 21:33N 40°29' W 074°07'0 0.0
2014-Jul-13 20:33N 40°29' W 074°07'0 0.1
2014-Jul-13 19:33N 40°29' W 074°07'0 0.0
2014-Jul-13 18:33N 40°29' W 074°07'0 0.0
2014-Jul-13 17:33N 40°29' W 074°07'0 0.0
2014-Jul-13 16:33N 40°29' W 074°07'0 0.0
2014-Jul-13 15:33N 40°29' W 074°07'0 0.0
2014-Jul-13 14:33N 40°29' W 074°07'0 0.1
2014-Jul-13 13:33N 40°29' W 074°07'0 0.0
2014-Jul-13 12:33N 40°29' W 074°07'0 0.0
2014-Jul-13 11:33N 40°29' W 074°07'0 0.0
2014-Jul-13 10:33N 40°29' W 074°07'0 0.0
2014-Jul-13 09:33N 40°29' W 074°07'0 0.0
2014-Jul-13 08:33N 40°29' W 074°07'0 0.1
2014-Jul-13 07:33N 40°29' W 074°07'0 0.0
2014-Jul-13 06:33N 40°29' W 074°07'0 0.0
2014-Jul-13 05:33N 40°29' W 074°07'0 0.0
2014-Jul-13 04:33N 40°29' W 074°07'0 0.0
2014-Jul-13 03:33N 40°29' W 074°07'0 0.0
2014-Jul-13 02:33N 40°29' W 074°07'0 0.1
2014-Jul-13 01:33N 40°29' W 074°07'0 0.1
2014-Jul-13 00:33N 40°29' W 074°07'0 0.0
2014-Jul-12 23:33N 40°29' W 074°07'4 3.9
2014-Jul-12 22:33N 40°29' W 074°02'8 8.4
2014-Jul-12 21:33N 40°22' W 073°54'10 9.5
2014-Jul-12 20:33N 40°13' W 073°55'1010.2
2014-Jul-12 19:33N 40°03' W 073°56'1010.1
2014-Jul-12 18:33N 39°53' W 073°57'10 9.6
2014-Jul-12 17:33N 39°43' W 073°59'10 9.7
2014-Jul-12 16:33N 39°35' W 074°05'11 9.7
2014-Jul-12 15:23N 39°25' W 074°13'8 9.9
2014-Jul-12 14:33N 39°19' W 074°19'1010.0
2014-Jul-12 13:33N 39°11' W 074°27'10 9.7
2014-Jul-12 12:33N 39°03' W 074°35'9 9.5
2014-Jul-12 11:33N 38°56' W 074°44'9 9.1
2014-Jul-12 10:33N 38°50' W 074°52'8 7.9
2014-Jul-12 09:33N 38°49' W 075°02'9 8.9
2014-Jul-12 08:33N 38°57' W 075°07'1110.5
2014-Jul-12 07:33N 39°06' W 075°12'1211.7
2014-Jul-12 06:32N 39°16' W 075°21'1211.6
2014-Jul-12 05:29N 39°25' W 075°31'8 9.1
2014-Jul-12 04:33N 39°34' W 075°33'  
Track history (hours):
 
Tides and Currents Weather Stations Pressure Air Temp Water Temp Dewpoint Dewpoint Depression Visibility Wind Speed Wind Dir Waves Ship Positions

Bluefin

More information available from US FCC via Universal Licensing System and Coast Guard Vessel Documentation Center.

Last reported at 2014-Jul-22 03:26 UTC. Time now 2014-Jul-22 11:21 UTC.
Position N 43°07' W 070°48'.

Length 166 m; draft 4.7 m.

Type: Towing. MMSI: 367416750.

Date/timePositionNaut miles runAvg speedWind from/ knotsBaromVisibWave heightAir tempDewpointWater temp
2014-Jul-22 03:26N 43°07' W 070°48'0 0.0
2014-Jul-22 02:27N 43°07' W 070°48'1 1.5
2014-Jul-22 01:33N 43°06' W 070°47'5 5.3
2014-Jul-22 00:33N 43°02' W 070°41'8 7.9
2014-Jul-21 23:34N 42°55' W 070°38'9 8.9
2014-Jul-21 22:33N 42°46' W 070°34'25 9.2
2014-Jul-21 19:51N 42°22' W 070°29'3 9.6
2014-Jul-21 19:32N 42°19' W 070°28'9 9.3
2014-Jul-21 18:33N 42°09' W 070°28'10 9.5
2014-Jul-21 17:33N 41°60' W 070°27'9 9.5
2014-Jul-21 16:33N 41°51' W 070°28'8 6.8
2014-Jul-21 15:26N 41°45' W 070°35'6 6.9
2014-Jul-21 14:33N 41°41' W 070°41'142 4.7
2014-Jul-20 08:27N 40°05' W 072°59'8 9.5
2014-Jul-20 07:33N 39°60' W 073°07'10 9.5
2014-Jul-20 06:33N 39°53' W 073°17'10 9.4
2014-Jul-20 05:29N 39°47' W 073°27'18 9.2
2014-Jul-20 03:29N 39°36' W 073°45'8 9.0
2014-Jul-20 02:33N 39°30' W 073°54'19 9.1
2014-Jul-20 00:28N 39°18' W 074°13'57 1.6
2014-Jul-18 13:17N 39°51' W 075°14'0 0.0
2014-Jul-18 12:33N 39°51' W 075°14'0 0.0
2014-Jul-18 07:24N 39°51' W 075°14'54 3.8
2014-Jul-17 17:24N 39°23' W 074°14'911.1
2014-Jul-17 16:33N 39°31' W 074°08'1111.0
2014-Jul-17 15:33N 39°41' W 074°01'1210.7
2014-Jul-17 14:23N 39°53' W 073°57'910.9
2014-Jul-17 13:33N 40°02' W 073°56'1110.7
2014-Jul-17 12:33N 40°12' W 073°55'1110.9
2014-Jul-17 11:33N 40°23' W 073°54'10 9.9
2014-Jul-17 10:33N 40°32' W 074°01'6 5.7
2014-Jul-17 09:32N 40°37' W 074°03'0 0.0
2014-Jul-17 08:26N 40°37' W 074°03'0 0.0
2014-Jul-17 07:29N 40°37' W 074°03'0 0.2
2014-Jul-17 06:29N 40°37' W 074°04'0 0.0
2014-Jul-17 05:32N 40°37' W 074°04'0 0.0
2014-Jul-17 04:29N 40°37' W 074°04'0 0.0
2014-Jul-17 03:32N 40°37' W 074°04'0 0.0
2014-Jul-17 02:32N 40°37' W 074°04'0 0.0
2014-Jul-17 01:33N 40°37' W 074°04'0 0.2
2014-Jul-17 00:33N 40°37' W 074°03'0 0.1
2014-Jul-16 23:34N 40°37' W 074°03'0 0.0
2014-Jul-16 22:33N 40°37' W 074°03'0 0.0
2014-Jul-16 21:32N 40°37' W 074°03'0 0.0
2014-Jul-16 20:33N 40°37' W 074°03'0 0.0
2014-Jul-16 19:33N 40°37' W 074°03'0 0.1
2014-Jul-16 18:33N 40°37' W 074°03'0 0.2
2014-Jul-16 17:33N 40°37' W 074°03'0 0.4
2014-Jul-16 16:33N 40°38' W 074°04'2 1.8
2014-Jul-16 15:33N 40°39' W 074°05'11 0.9
2014-Jul-16 03:33N 40°30' W 074°13'5 4.5
2014-Jul-16 02:33N 40°29' W 074°07'0 0.0
2014-Jul-15 23:05N 40°29' W 074°07'0 0.0
2014-Jul-15 17:26N 40°29' W 074°07'0 0.0
2014-Jul-15 16:32N 40°29' W 074°07'0 0.1
2014-Jul-15 14:26N 40°29' W 074°07'0 0.0
2014-Jul-15 13:26N 40°29' W 074°07'0 0.0
2014-Jul-15 12:05N 40°29' W 074°07'0 0.0
2014-Jul-15 10:32N 40°29' W 074°07'0 0.2
2014-Jul-15 09:32N 40°29' W 074°07'0 0.0
2014-Jul-15 08:26N 40°29' W 074°07'0 0.0
2014-Jul-15 07:23N 40°29' W 074°07'0 0.0
2014-Jul-15 06:32N 40°29' W 074°07'0 0.0
2014-Jul-15 02:32N 40°29' W 074°07'0 0.0
2014-Jul-14 19:14N 40°29' W 074°07'0 0.0
2014-Jul-14 17:05N 40°29' W 074°07'0 0.0
2014-Jul-14 16:32N 40°29' W 074°07'0 0.0
2014-Jul-14 15:26N 40°29' W 074°07'0 0.1
2014-Jul-14 14:20N 40°29' W 074°07'0 0.0
2014-Jul-14 13:17N 40°29' W 074°07'0 0.0
2014-Jul-14 09:32N 40°29' W 074°07'0 0.0
2014-Jul-14 08:23N 40°29' W 074°07'0 0.0
2014-Jul-14 03:32N 40°29' W 074°07'0 0.1
2014-Jul-14 02:20N 40°29' W 074°07'0 0.0
2014-Jul-14 01:32N 40°29' W 074°07'0 0.0
2014-Jul-14 00:26N 40°29' W 074°07'0 0.0
2014-Jul-13 23:29N 40°29' W 074°07'0 0.0
2014-Jul-13 22:33N 40°29' W 074°07'0 0.0
2014-Jul-13 21:33N 40°29' W 074°07'0 0.0
2014-Jul-13 20:33N 40°29' W 074°07'0 0.1
2014-Jul-13 19:33N 40°29' W 074°07'0 0.0
2014-Jul-13 18:33N 40°29' W 074°07'0 0.0
2014-Jul-13 17:33N 40°29' W 074°07'0 0.0
2014-Jul-13 16:33N 40°29' W 074°07'0 0.0
2014-Jul-13 15:33N 40°29' W 074°07'0 0.0
2014-Jul-13 14:33N 40°29' W 074°07'0 0.1
2014-Jul-13 13:33N 40°29' W 074°07'0 0.0
2014-Jul-13 12:33N 40°29' W 074°07'0 0.0
2014-Jul-13 11:33N 40°29' W 074°07'0 0.0
2014-Jul-13 10:33N 40°29' W 074°07'0 0.0
2014-Jul-13 09:33N 40°29' W 074°07'0 0.0
2014-Jul-13 08:33N 40°29' W 074°07'0 0.1
2014-Jul-13 07:33N 40°29' W 074°07'0 0.0
2014-Jul-13 06:33N 40°29' W 074°07'0 0.0
2014-Jul-13 05:33N 40°29' W 074°07'0 0.0
2014-Jul-13 04:33N 40°29' W 074°07'0 0.0
2014-Jul-13 03:33N 40°29' W 074°07'0 0.0
2014-Jul-13 02:33N 40°29' W 074°07'0 0.1
2014-Jul-13 01:33N 40°29' W 074°07'0 0.1
2014-Jul-13 00:33N 40°29' W 074°07'0 0.0
2014-Jul-12 23:33N 40°29' W 074°07'4 3.9
2014-Jul-12 22:33N 40°29' W 074°02'8 8.4
2014-Jul-12 21:33N 40°22' W 073°54'10 9.5
2014-Jul-12 20:33N 40°13' W 073°55'1010.2
2014-Jul-12 19:33N 40°03' W 073°56'1010.1
2014-Jul-12 18:33N 39°53' W 073°57'10 9.6
2014-Jul-12 17:33N 39°43' W 073°59'10 9.7
2014-Jul-12 16:33N 39°35' W 074°05'11 9.7
2014-Jul-12 15:23N 39°25' W 074°13'8 9.9
2014-Jul-12 14:33N 39°19' W 074°19'1010.0
2014-Jul-12 13:33N 39°11' W 074°27'10 9.7
2014-Jul-12 12:33N 39°03' W 074°35'9 9.5
2014-Jul-12 11:33N 38°56' W 074°44'9 9.1
2014-Jul-12 10:33N 38°50' W 074°52'8 7.9
2014-Jul-12 09:33N 38°49' W 075°02'9 8.9
2014-Jul-12 08:33N 38°57' W 075°07'1110.5
2014-Jul-12 07:33N 39°06' W 075°12'1211.7
2014-Jul-12 06:32N 39°16' W 075°21'1211.6
2014-Jul-12 05:29N 39°25' W 075°31'8 9.1
2014-Jul-12 04:33N 39°34' W 075°33'  

Dump ship's entire track history